Cherry Capital Airport
KTVC : now visible

Airfield :











YOU CAN JOIN US ON...

 
LOGIN :

Register | Disclaimer

   EN    FR    IT 

 









Legend :    VFR   Marginal VFR   IFR   Intensive IFR   Very Intensive IFR
Visi :
Ceiling :
>= 8 km
>= 3000ft
5 to 8 km
1000 to 3000 ft
1500m to 5 km
500 to 1000 ft
800 to 1500m
200 to 500 ft
< 800m
< 200 ft
Symbols :   Thunderstorms  Fog  Heavy snow  Heavy precipitations  Wind > 20 kt






- Airport Elevation : 624 ft
- IATA code : TVC


KTVC - Cherry Capital

CURRENT METAR :
  • 021653Z 03006KT 10SM CLR 10/01 A3016 RMK AO2 SLP219 T01000011

EXPIRED METARs :
  • 021553Z 02004KT 10SM CLR 08/01 A3018 RMK AO2 SLP225 T00830006
  • 021453Z 04004KT 10SM CLR 07/01 A3018 RMK AO2 SLP226 T00720011 51004
  • 021353Z 00000KT 10SM CLR 06/02 A3018 RMK AO2 SLP225 T00560017

TAF KTVC
Valid from the 02 at 12:00 until the 03 at 12:00 UTC


021124Z 0212/0312 VRB03KT P6SM SKC
FM021700 02006KT P6SM FEW250
FM022300 VRB03KT P6SM FEW250
FM031000 00000KT P6SM FEW100



MET'MAP, your aeronautical weather chart ! - Copyright ORBIFLY December 2007 - Disclaimer

ORBIFLY MET'MAP TEAM :

Programming & Development : Alexandra Zaïnal
Concept & original design : Baudouin d'Aumeries
Assistance for programming : Marc-Olivier Méhu
Technical & hardware support : Manuel Goepfert

Contact : metmap@orbifly.com




SOURCES & CREDITS :

   NOAA       Earth
Advisory